Time;durP1;ratioP1;P1;durP2;ratioP2;P2;SDS_P1;SDS_P2;PMS_P1;PMS_P2;Temp;Humidity;BMP_temperature;BMP_pressure;BME280_temperature;BME280_humidity;BME280_pressure;Samples;Min_cycle;Max_cycle;Signal;HPM_P1;HPM_P2
2021/01/07 00:02:02;;;;;;;37.70;12.80;;;;;;;6.30;97.81;100872.22;5023924;28;20025;-77
2021/01/07 00:04:27;;;;;;;16.42;6.47;;;;;;;6.12;99.12;100872.50;5045038;28;20052;-77
2021/01/07 00:06:53;;;;;;;21.38;7.63;;;;;;;6.17;99.06;100868.34;5021275;28;20468;-78
2021/01/07 00:09:18;;;;;;;18.40;7.13;;;;;;;6.13;99.28;100868.84;5048035;28;20036;-78
2021/01/07 00:11:43;;;;;;;20.02;6.82;;;;;;;6.12;99.63;100870.66;5041617;28;20027;-78
2021/01/07 00:14:09;;;;;;;15.27;6.68;;;;;;;6.03;100.00;100876.97;5025809;28;20501;-78
2021/01/07 00:16:36;;;;;;;16.23;6.68;;;;;;;6.00;100.00;100866.78;5027730;28;20112;-78
2021/01/07 00:19:02;;;;;;;20.73;7.25;;;;;;;6.00;100.00;100876.50;5021911;28;20029;-78
2021/01/07 00:21:28;;;;;;;16.15;7.07;;;;;;;5.91;100.00;100873.03;5048087;28;20033;-77
2021/01/07 00:23:53;;;;;;;21.17;8.35;;;;;;;5.93;100.00;100881.63;5040854;28;20014;-77
2021/01/07 00:26:18;;;;;;;24.00;9.20;;;;;;;5.95;100.00;100877.00;5026901;28;20698;-77
2021/01/07 00:28:44;;;;;;;18.73;8.52;;;;;;;5.89;100.00;100875.03;5024294;28;20036;-78
2021/01/07 00:31:09;;;;;;;20.13;8.43;;;;;;;5.73;100.00;100876.72;5046510;28;20029;-78
2021/01/07 00:33:35;;;;;;;26.63;10.45;;;;;;;5.71;100.00;100876.06;5022469;28;20020;-77
2021/01/07 00:36:00;;;;;;;24.02;8.65;;;;;;;5.70;100.00;100874.44;5042588;28;20025;-78
2021/01/07 00:38:25;;;;;;;19.98;7.95;;;;;;;5.81;100.00;100873.25;5038786;28;20107;-77
2021/01/07 00:40:51;;;;;;;21.00;8.50;;;;;;;6.01;100.00;100870.22;5028458;28;20025;-78
2021/01/07 00:43:16;;;;;;;11.65;5.68;;;;;;;5.86;100.00;100862.19;5020887;28;20033;-78
2021/01/07 00:45:42;;;;;;;10.20;5.75;;;;;;;5.87;100.00;100854.13;5027739;28;20037;-77
2021/01/07 00:48:07;;;;;;;14.15;5.75;;;;;;;5.76;100.00;100848.41;5025919;28;20477;-77
2021/01/07 00:50:33;;;;;;;11.82;5.63;;;;;;;5.67;100.00;100858.16;5040442;28;20025;-77
2021/01/07 00:52:58;;;;;;;9.35;4.78;;;;;;;5.67;100.00;100848.41;5029333;28;20024;-78
2021/01/07 00:55:24;;;;;;;6.72;3.90;;;;;;;5.69;100.00;100864.06;5021888;28;20386;-77
2021/01/07 00:57:49;;;;;;;12.18;4.35;;;;;;;5.77;100.00;100868.47;5043794;28;20041;-77
2021/01/07 01:00:18;;;;;;;10.15;5.88;;;;;;;5.83;100.00;100865.97;5026336;28;20476;-78
2021/01/07 01:02:44;;;;;;;9.88;5.18;;;;;;;5.84;100.00;100859.72;5040034;28;20029;-77
2021/01/07 01:05:10;;;;;;;11.52;6.95;;;;;;;5.71;100.00;100867.34;5029469;28;20394;-77
2021/01/07 01:07:35;;;;;;;29.45;17.05;;;;;;;5.70;100.00;100848.09;5022378;28;20059;-78
2021/01/07 01:10:02;;;;;;;20.70;10.00;;;;;;;5.65;100.00;100837.22;5024357;28;20025;-78
2021/01/07 01:12:27;;;;;;;13.43;6.80;;;;;;;5.69;100.00;100835.09;5026762;28;20033;-78
2021/01/07 01:14:53;;;;;;;15.18;8.32;;;;;;;5.65;100.00;100826.69;5022407;28;20079;-78
2021/01/07 01:17:19;;;;;;;15.05;7.28;;;;;;;5.62;100.00;100824.38;5045806;28;20477;-78
2021/01/07 01:19:44;;;;;;;11.45;6.85;;;;;;;5.59;100.00;100824.72;5040909;28;20032;-78
2021/01/07 01:22:10;;;;;;;9.98;4.95;;;;;;;5.64;100.00;100816.31;5040265;28;20036;-77
2021/01/07 01:24:35;;;;;;;9.40;3.47;;;;;;;5.60;100.00;100805.31;5026462;28;20056;-78
2021/01/07 01:27:02;;;;;;;6.72;4.63;;;;;;;5.54;100.00;100803.34;5021135;28;20025;-78
2021/01/07 01:29:27;;;;;;;29.20;12.57;;;;;;;5.59;100.00;100798.38;5028926;28;20025;-77
2021/01/07 01:31:53;;;;;;;107.72;51.17;;;;;;;5.59;100.00;100797.56;5042036;28;20017;-78
2021/01/07 01:34:22;;;;;;;84.50;41.38;;;;;;;5.53;100.00;100798.25;5041269;28;20067;-77
2021/01/07 01:36:49;;;;;;;93.18;46.97;;;;;;;5.54;100.00;100795.44;5027319;28;20036;-77
2021/01/07 01:39:15;;;;;;;77.90;38.88;;;;;;;5.52;100.00;100786.88;5020801;28;20021;-78
2021/01/07 01:41:47;;;;;;;83.68;40.30;;;;;;;5.53;100.00;100769.25;5026706;28;20025;-78
2021/01/07 01:44:14;;;;;;;74.13;34.78;;;;;;;5.51;100.00;100753.66;5042661;28;20451;-78
2021/01/07 01:46:40;;;;;;;70.93;32.65;;;;;;;5.46;100.00;100748.06;5043528;28;20199;-78
2021/01/07 01:49:08;;;;;;;59.35;25.55;;;;;;;5.35;100.00;100756.31;5038016;28;20499;-77
2021/01/07 01:51:34;;;;;;;42.05;17.75;;;;;;;5.24;100.00;100731.19;5027305;28;20187;-78
2021/01/07 01:54:00;;;;;;;39.42;18.08;;;;;;;5.17;100.00;100731.03;5027556;28;20080;-78
2021/01/07 01:56:26;;;;;;;41.33;18.38;;;;;;;5.19;100.00;100725.63;5046169;28;20493;-78
2021/01/07 01:58:52;;;;;;;51.25;23.92;;;;;;;5.12;100.00;100724.66;5024674;28;20021;-78
2021/01/07 02:01:18;;;;;;;44.20;18.40;;;;;;;5.15;100.00;100727.78;5046729;28;20421;-78
2021/01/07 02:03:44;;;;;;;40.65;18.23;;;;;;;5.13;100.00;100719.22;5034194;28;20029;-78
2021/01/07 02:06:14;;;;;;;50.58;24.00;;;;;;;5.20;100.00;100721.97;5034474;28;20032;-77
2021/01/07 02:08:47;;;;;;;55.90;25.92;;;;;;;5.13;100.00;100723.66;5044619;28;20104;-78
2021/01/07 02:11:14;;;;;;;38.75;15.82;;;;;;;5.05;100.00;100714.81;5028094;28;20360;-77
2021/01/07 02:13:43;;;;;;;33.60;14.93;;;;;;;5.08;100.00;100705.72;5029725;28;20067;-77
2021/01/07 02:16:09;;;;;;;25.58;13.15;;;;;;;5.03;100.00;100702.81;5026673;28;20051;-78
2021/01/07 02:18:34;;;;;;;30.77;13.55;;;;;;;4.86;100.00;100698.56;5043675;28;20435;-77
2021/01/07 02:21:00;;;;;;;31.95;16.80;;;;;;;4.83;100.00;100697.09;5040147;28;20021;-78
2021/01/07 02:23:26;;;;;;;29.63;13.70;;;;;;;4.77;100.00;100684.63;5032387;28;20025;-77
2021/01/07 02:25:51;;;;;;;24.02;12.23;;;;;;;4.75;100.00;100681.31;5047304;28;20029;-77
2021/01/07 02:28:17;;;;;;;20.63;11.30;;;;;;;4.75;100.00;100679.53;5020850;28;20060;-77
2021/01/07 02:30:42;;;;;;;23.83;9.93;;;;;;;4.67;100.00;100681.34;5048683;28;20040;-78
2021/01/07 02:33:08;;;;;;;22.88;11.23;;;;;;;4.62;100.00;100688.94;5026259;28;20086;-78
2021/01/07 02:35:33;;;;;;;23.42;11.10;;;;;;;4.65;100.00;100688.59;5027170;28;20087;-78
2021/01/07 02:37:59;;;;;;;21.02;10.45;;;;;;;4.59;100.00;100685.63;5026746;28;20377;-77
2021/01/07 02:40:24;;;;;;;25.55;12.95;;;;;;;4.78;100.00;100684.47;5026881;28;20025;-78
2021/01/07 02:42:50;;;;;;;24.38;11.25;;;;;;;4.75;100.00;100676.06;5044300;28;20035;-77
2021/01/07 02:45:15;;;;;;;50.72;31.35;;;;;;;4.85;100.00;100670.63;5027844;28;20083;-78
2021/01/07 02:47:40;;;;;;;29.55;14.73;;;;;;;4.80;100.00;100673.75;5029369;28;20032;-78
2021/01/07 02:50:07;;;;;;;25.83;13.45;;;;;;;4.74;100.00;100671.78;5023533;28;20064;-77
2021/01/07 02:52:33;;;;;;;27.08;11.95;;;;;;;4.75;100.00;100668.16;5048962;28;20093;-78
2021/01/07 02:54:59;;;;;;;25.58;12.98;;;;;;;4.77;100.00;100668.81;5024612;28;20027;-78
2021/01/07 02:57:24;;;;;;;32.00;16.35;;;;;;;4.83;100.00;100661.06;5043576;28;20119;-77
2021/01/07 02:59:50;;;;;;;29.35;15.90;;;;;;;4.77;100.00;100666.19;5047606;28;20106;-78
2021/01/07 03:02:15;;;;;;;31.02;14.32;;;;;;;4.73;100.00;100667.53;5023928;28;20039;-78
2021/01/07 03:04:41;;;;;;;34.92;16.33;;;;;;;4.87;100.00;100658.94;5041004;28;20470;-78
2021/01/07 03:07:07;;;;;;;34.45;15.95;;;;;;;4.90;100.00;100663.88;5043978;28;20130;-78
2021/01/07 03:09:33;;;;;;;38.83;18.33;;;;;;;5.04;100.00;100664.94;5026895;28;20374;-77
2021/01/07 03:12:09;;;;;;;34.85;16.17;;;;;;;4.93;100.00;100670.56;5029627;28;20020;-78
2021/01/07 03:14:34;;;;;;;32.22;16.33;;;;;;;4.95;100.00;100661.53;5035313;28;20028;-77
2021/01/07 03:17:00;;;;;;;33.90;18.08;;;;;;;4.90;100.00;100660.38;5052957;28;20025;-77
2021/01/07 03:19:25;;;;;;;31.90;16.52;;;;;;;4.93;100.00;100657.41;5051931;28;20100;-77
2021/01/07 03:21:51;;;;;;;35.45;16.00;;;;;;;4.90;100.00;100658.59;5053131;28;20492;-78
2021/01/07 03:24:16;;;;;;;30.65;16.77;;;;;;;4.91;100.00;100654.97;5031433;28;20036;-77
2021/01/07 03:26:41;;;;;;;31.05;17.27;;;;;;;4.90;100.00;100650.72;5052899;28;20052;-78
2021/01/07 03:29:07;;;;;;;34.20;17.65;;;;;;;4.90;100.00;100650.72;5052297;28;20029;-76
2021/01/07 03:31:32;;;;;;;42.33;20.35;;;;;;;4.94;100.00;100654.63;5043019;28;20020;-78
2021/01/07 03:33:57;;;;;;;40.03;20.00;;;;;;;4.91;100.00;100646.25;5029616;28;20116;-78
2021/01/07 03:36:23;;;;;;;39.17;18.90;;;;;;;4.76;100.00;100646.97;5029370;28;20029;-77
2021/01/07 03:38:48;;;;;;;39.83;19.75;;;;;;;4.78;100.00;100652.88;5041935;28;20088;-78
2021/01/07 03:41:14;;;;;;;37.47;19.13;;;;;;;4.86;100.00;100641.50;5025766;28;20458;-78
2021/01/07 03:43:39;;;;;;;39.35;19.08;;;;;;;4.70;100.00;100634.47;5025414;28;20025;-77
2021/01/07 03:46:04;;;;;;;39.30;19.83;;;;;;;4.80;100.00;100626.38;5042901;28;20040;-77
2021/01/07 03:48:30;;;;;;;45.03;20.48;;;;;;;4.53;100.00;100625.81;5044962;28;20053;-78
2021/01/07 03:50:55;;;;;;;36.45;20.27;;;;;;;4.47;100.00;100618.59;5025278;28;20035;-78
2021/01/07 03:53:21;;;;;;;45.00;20.92;;;;;;;4.43;100.00;100625.19;5045233;28;20360;-77
2021/01/07 03:55:46;;;;;;;32.50;15.13;;;;;;;4.42;100.00;100617.44;5045321;28;20033;-78
2021/01/07 03:58:11;;;;;;;29.00;15.57;;;;;;;4.38;100.00;100613.50;5047187;28;20128;-77
2021/01/07 04:00:37;;;;;;;28.63;14.38;;;;;;;4.50;100.00;100618.25;5023824;28;20033;-77
2021/01/07 04:03:03;;;;;;;34.03;17.02;;;;;;;4.24;100.00;100618.47;5043348;28;20489;-78
2021/01/07 04:05:28;;;;;;;34.47;17.40;;;;;;;4.12;100.00;100617.19;5045279;28;20036;-78
2021/01/07 04:07:54;;;;;;;28.10;16.10;;;;;;;3.97;100.00;100605.69;5033380;28;20029;-78
2021/01/07 04:10:19;;;;;;;27.10;14.93;;;;;;;3.92;100.00;100606.19;5038862;28;20036;-78
2021/01/07 04:12:44;;;;;;;27.55;15.93;;;;;;;3.88;100.00;100600.44;5045298;28;20101;-78
2021/01/07 04:15:10;;;;;;;39.17;23.88;;;;;;;3.90;100.00;100595.00;5024352;28;20072;-78
2021/01/07 04:17:35;;;;;;;26.83;15.38;;;;;;;3.74;100.00;100595.84;5027001;28;20497;-77
2021/01/07 04:20:01;;;;;;;42.72;25.23;;;;;;;3.83;100.00;100586.97;5041803;28;20374;-78
2021/01/07 04:22:26;;;;;;;33.05;19.17;;;;;;;3.81;100.00;100596.00;5030110;28;20060;-77
2021/01/07 04:24:52;;;;;;;35.78;19.23;;;;;;;4.12;100.00;100590.91;5042950;28;20035;-78
2021/01/07 04:27:17;;;;;;;34.65;17.70;;;;;;;3.84;100.00;100590.41;5031853;28;20041;-77
2021/01/07 04:29:46;;;;;;;25.48;14.65;;;;;;;3.86;100.00;100591.06;5047715;28;20029;-78
2021/01/07 04:32:11;;;;;;;31.98;15.48;;;;;;;4.63;100.00;100595.84;5038341;28;20033;-77
2021/01/07 04:34:37;;;;;;;25.48;12.45;;;;;;;4.42;100.00;100594.63;5041108;28;20166;-77
2021/01/07 04:37:02;;;;;;;20.13;11.43;;;;;;;4.42;100.00;100592.00;5027541;28;20056;-78
2021/01/07 04:39:28;;;;;;;20.98;12.52;;;;;;;4.14;100.00;100591.53;5048980;28;20044;-78
2021/01/07 04:41:53;;;;;;;24.17;12.23;;;;;;;3.91;100.00;100591.41;5032835;28;20446;-77
2021/01/07 04:44:21;;;;;;;18.17;9.55;;;;;;;3.78;100.00;100593.69;5048905;28;20048;-78
2021/01/07 04:46:47;;;;;;;20.25;11.52;;;;;;;3.72;100.00;100602.22;5034590;28;20405;-78
2021/01/07 04:49:13;;;;;;;28.65;13.93;;;;;;;3.30;100.00;100592.66;5026980;28;20040;-77
2021/01/07 04:51:39;;;;;;;22.52;12.98;;;;;;;3.33;100.00;100597.59;5051855;28;20040;-77
2021/01/07 04:54:05;;;;;;;23.30;10.95;;;;;;;3.18;100.00;100592.19;5048006;28;20051;-77
2021/01/07 04:56:30;;;;;;;21.88;12.93;;;;;;;3.16;100.00;100596.75;5050051;28;20104;-78
2021/01/07 04:58:56;;;;;;;22.85;13.43;;;;;;;2.96;100.00;100593.56;5044898;28;20100;-77
2021/01/07 05:01:21;;;;;;;27.85;14.38;;;;;;;2.81;100.00;100597.78;5029973;28;20462;-78
2021/01/07 05:03:46;;;;;;;24.05;13.60;;;;;;;2.69;100.00;100597.25;5040373;28;20028;-78
2021/01/07 05:06:13;;;;;;;26.23;15.55;;;;;;;2.88;100.00;100601.44;5042879;28;20025;-77
2021/01/07 05:08:38;;;;;;;30.90;15.93;;;;;;;3.17;100.00;100595.75;5044888;28;20029;-78
2021/01/07 05:11:04;;;;;;;49.38;29.73;;;;;;;3.17;100.00;100593.97;5026797;28;20047;-78
2021/01/07 05:13:29;;;;;;;37.10;21.30;;;;;;;2.96;100.00;100598.81;5038693;28;20034;-78
2021/01/07 05:15:55;;;;;;;29.52;16.60;;;;;;;3.20;100.00;100592.81;5038580;28;20029;-78
2021/01/07 05:18:20;;;;;;;25.35;15.15;;;;;;;3.15;100.00;100588.06;5041924;28;20120;-78
2021/01/07 05:20:46;;;;;;;24.98;13.45;;;;;;;2.78;100.00;100601.53;5024420;28;20481;-77
2021/01/07 05:23:11;;;;;;;19.38;11.65;;;;;;;2.87;100.00;100603.22;5045952;28;20436;-77
2021/01/07 05:25:39;;;;;;;24.58;13.50;;;;;;;3.03;100.00;100604.28;5041618;28;20033;-78
2021/01/07 05:28:05;;;;;;;20.83;12.00;;;;;;;3.17;100.00;100595.75;5023981;28;20052;-77
2021/01/07 05:30:32;;;;;;;21.95;10.88;;;;;;;2.70;100.00;100604.16;5043587;28;20393;-78
2021/01/07 05:33:00;;;;;;;25.80;14.13;;;;;;;2.99;100.00;100593.25;5024542;28;20555;-78
2021/01/07 05:35:26;;;;;;;28.45;17.38;;;;;;;2.96;100.00;100581.25;5023475;28;20540;-78
2021/01/07 05:37:52;;;;;;;69.20;26.80;;;;;;;2.87;100.00;100584.03;5040945;28;20029;-78
2021/01/07 05:40:17;;;;;;;34.25;15.50;;;;;;;2.75;100.00;100584.34;5020090;28;20481;-78
2021/01/07 05:42:45;;;;;;;57.75;25.95;;;;;;;2.73;100.00;100582.84;5024940;28;20370;-77
2021/01/07 05:45:13;;;;;;;55.15;27.33;;;;;;;2.98;100.00;100589.81;5053271;28;20025;-78
2021/01/07 05:47:42;;;;;;;56.95;29.73;;;;;;;3.16;100.00;100594.13;5059992;28;20028;-77
2021/01/07 05:50:08;;;;;;;51.88;34.70;;;;;;;3.60;100.00;100589.44;5049535;28;20469;-78
2021/01/07 05:52:34;;;;;;;33.83;21.60;;;;;;;3.26;100.00;100602.69;5028419;28;20386;-77
2021/01/07 05:55:00;;;;;;;61.47;41.92;;;;;;;3.20;100.00;100601.50;5039848;28;20025;-78
2021/01/07 05:57:28;;;;;;;94.28;54.97;;;;;;;4.38;100.00;100605.63;5045417;28;20130;-78
2021/01/07 05:59:56;;;;;;;57.05;31.48;;;;;;;4.77;100.00;100611.75;5024507;28;20387;-78
2021/01/07 06:02:23;;;;;;;43.53;20.45;;;;;;;5.30;100.00;100604.09;5025636;28;20024;-78
2021/01/07 06:04:51;;;;;;;32.05;17.15;;;;;;;5.96;100.00;100605.28;5040269;28;20025;-78
2021/01/07 06:07:17;;;;;;;19.63;9.13;;;;;;;6.69;100.00;100609.97;5025881;28;20037;-77
2021/01/07 06:09:48;;;;;;;13.77;8.23;;;;;;;6.92;98.50;100615.16;5041042;28;20029;-78
2021/01/07 06:12:14;;;;;;;9.48;4.05;;;;;;;7.23;97.01;100614.91;5036783;28;20037;-77
2021/01/07 06:14:43;;;;;;;10.77;4.03;;;;;;;7.51;95.15;100612.38;5043890;28;20068;-77
2021/01/07 06:17:09;;;;;;;9.13;3.03;;;;;;;7.80;93.12;100611.41;5031546;28;20021;-78
2021/01/07 06:19:37;;;;;;;6.55;2.60;;;;;;;7.98;91.90;100619.69;5049630;28;20446;-78
2021/01/07 06:22:14;;;;;;;3.17;1.63;;;;;;;8.32;89.67;100623.44;5034682;28;20531;-76
2021/01/07 06:24:41;;;;;;;9.77;3.22;;;;;;;8.49;88.05;100626.63;5043108;28;20036;-78
2021/01/07 06:27:30;;;;;;;5.93;2.80;;;;;;;8.62;87.42;100628.50;5041757;28;20049;-76
2021/01/07 06:30:05;;;;;;;6.55;1.83;;;;;;;8.73;86.74;100627.97;5024672;28;20025;-77
2021/01/07 06:32:31;;;;;;;5.85;2.42;;;;;;;8.94;85.17;100638.47;5020540;28;20024;-77
2021/01/07 06:34:57;;;;;;;7.80;2.47;;;;;;;9.06;84.04;100654.63;5020933;28;20035;-78
2021/01/07 06:37:50;;;;;;;6.70;2.38;;;;;;;9.06;84.40;100659.09;5039041;28;20052;-78
2021/01/07 06:40:16;;;;;;;;;;;;;;;9.15;83.03;100653.44;5021812;28;20030;-76
2021/01/07 06:42:44;;;;;;;7.25;2.00;;;;;;;9.07;83.57;100647.47;5030159;28;19991;-76
2021/01/07 06:45:11;;;;;;;7.00;2.28;;;;;;;9.05;84.62;100652.19;5028486;28;20026;-76
2021/01/07 06:47:42;;;;;;;8.73;2.10;;;;;;;9.10;84.37;100649.75;5026849;28;20060;-76
2021/01/07 06:50:12;;;;;;;3.55;1.13;;;;;;;9.12;83.57;100655.66;5018932;28;20083;-77
2021/01/07 06:52:42;;;;;;;3.90;2.15;;;;;;;9.06;84.32;100651.97;5043595;28;20061;-77
2021/01/07 06:55:15;;;;;;;4.38;1.30;;;;;;;9.11;83.86;100654.03;5028594;28;20437;-77
2021/01/07 06:57:49;;;;;;;4.60;1.40;;;;;;;9.23;82.62;100657.75;5050554;28;20048;-77
2021/01/07 07:00:19;;;;;;;7.53;2.65;;;;;;;9.29;81.92;100664.06;5050144;28;20083;-76
2021/01/07 07:02:57;;;;;;;6.72;2.55;;;;;;;9.33;81.74;100665.34;5035619;28;20025;-77
2021/01/07 07:05:25;;;;;;;9.23;3.97;;;;;;;9.33;81.46;100676.75;5022217;28;20090;-77
2021/01/07 07:08:14;;;;;;;5.50;2.78;;;;;;;9.39;80.82;100659.22;5030870;28;20040;-77
2021/01/07 07:10:39;;;;;;;4.90;3.28;;;;;;;9.40;81.16;100658.22;5047966;28;20052;-76
2021/01/07 07:13:28;;;;;;;3.15;1.98;;;;;;;9.59;80.20;100661.91;5035592;28;20454;-77
2021/01/07 07:16:00;;;;;;;4.57;1.42;;;;;;;9.78;78.61;100674.41;5029808;28;20021;-77
2021/01/07 07:18:35;;;;;;;4.77;1.00;;;;;;;9.94;78.25;100688.31;5033216;28;20028;-77
2021/01/07 07:21:18;;;;;;;1.90;0.70;;;;;;;9.90;78.59;100701.19;5054026;28;20025;-76
2021/01/07 07:23:45;;;;;;;1.40;1.05;;;;;;;10.07;77.46;100712.19;5035153;28;20082;-76
2021/01/07 07:26:14;;;;;;;2.95;0.70;;;;;;;9.81;80.13;100737.69;5034717;28;20410;-77
2021/01/07 07:28:45;;;;;;;2.50;0.70;;;;;;;9.91;77.75;100770.97;5037485;28;20017;-77
2021/01/07 07:31:11;;;;;;;4.00;1.60;;;;;;;9.31;80.21;100790.09;5047760;28;20470;-77
2021/01/07 07:33:41;;;;;;;8.75;3.30;;;;;;;9.01;80.84;100802.75;5032335;28;20083;-77
2021/01/07 07:36:09;;;;;;;5.57;2.63;;;;;;;8.84;81.26;100802.22;5026253;28;20100;-76
2021/01/07 07:38:39;;;;;;;4.18;2.25;;;;;;;9.01;81.08;100801.94;5039976;28;20025;-77
2021/01/07 07:41:06;;;;;;;10.57;3.17;;;;;;;8.99;83.45;100810.09;5025902;28;20075;-77
2021/01/07 07:43:32;;;;;;;4.10;2.47;;;;;;;8.81;82.11;100807.09;5027078;28;20025;-77
2021/01/07 07:46:00;;;;;;;5.40;2.55;;;;;;;8.74;82.37;100812.31;5027062;28;20033;-77
2021/01/07 07:48:27;;;;;;;4.35;2.75;;;;;;;8.84;82.60;100814.66;5050698;28;20489;-77
2021/01/07 07:51:08;;;;;;;4.63;2.45;;;;;;;8.78;83.88;100813.59;5030176;28;20356;-77
2021/01/07 07:53:34;;;;;;;8.88;3.33;;;;;;;8.63;84.91;100813.66;5028626;28;20025;-76
2021/01/07 07:55:59;;;;;;;5.05;3.28;;;;;;;8.20;86.07;100823.38;5044969;28;20013;-76
2021/01/07 07:58:26;;;;;;;5.25;3.30;;;;;;;8.08;87.34;100827.53;5046584;28;20041;-77
2021/01/07 08:00:53;;;;;;;7.47;4.22;;;;;;;7.93;87.78;100832.88;5044986;28;20381;-76
2021/01/07 08:03:27;;;;;;;9.20;4.82;;;;;;;7.86;88.80;100838.06;5024900;28;20025;-77
2021/01/07 08:05:54;;;;;;;6.22;3.65;;;;;;;7.89;89.28;100834.25;5038872;28;20029;-76
2021/01/07 08:08:27;;;;;;;12.00;5.93;;;;;;;7.88;89.82;100844.00;5038250;28;20025;-76
2021/01/07 08:10:55;;;;;;;8.52;4.43;;;;;;;7.84;90.33;100847.19;5046015;28;20370;-77
2021/01/07 08:13:22;;;;;;;7.88;3.50;;;;;;;7.72;91.47;100846.84;5027441;28;20037;-79
2021/01/07 08:15:51;;;;;;;9.48;5.18;;;;;;;7.94;91.14;100853.03;5025763;28;20087;-77
2021/01/07 08:18:24;;;;;;;7.60;3.85;;;;;;;7.87;91.16;100852.94;5038145;28;20486;-77
2021/01/07 08:20:53;;;;;;;9.20;4.65;;;;;;;8.05;90.97;100852.56;5030167;28;20052;-78
2021/01/07 08:23:20;;;;;;;8.63;4.38;;;;;;;8.02;91.42;100860.88;5048292;28;20032;-77
2021/01/07 08:25:50;;;;;;;6.60;3.83;;;;;;;8.02;90.95;100861.69;5046456;28;20041;-77
2021/01/07 08:28:45;;;;;;;5.47;3.20;;;;;;;8.60;89.29;100868.84;5022161;28;20029;-77
2021/01/07 08:31:32;;;;;;;4.60;3.28;;;;;;;8.87;87.05;100865.41;5009485;28;20043;-78
2021/01/07 08:33:57;;;;;;;3.92;2.50;;;;;;;10.25;81.38;100869.03;5023967;28;20064;-78
2021/01/07 08:36:24;;;;;;;5.18;3.28;;;;;;;9.61;83.86;100886.13;5031155;28;20053;-78
2021/01/07 08:38:53;;;;;;;5.05;3.50;;;;;;;9.34;84.57;100890.44;5049293;28;20055;-78
2021/01/07 08:41:22;;;;;;;6.75;3.40;;;;;;;9.77;83.04;100887.66;5049506;28;20127;-78
2021/01/07 08:43:50;;;;;;;6.72;3.40;;;;;;;9.36;84.81;100895.56;5050217;28;20037;-78
2021/01/07 08:46:22;;;;;;;12.27;4.90;;;;;;;9.10;86.78;100885.56;5037083;28;20359;-78
2021/01/07 08:49:03;;;;;;;10.73;5.65;;;;;;;8.96;87.23;100887.31;5053606;28;20024;-77
2021/01/07 08:51:45;;;;;;;10.40;5.75;;;;;;;9.13;87.36;100885.19;5042242;28;20115;-77
2021/01/07 08:54:13;;;;;;;10.65;5.70;;;;;;;8.76;88.16;100887.13;5034204;28;20465;-76
2021/01/07 08:56:41;;;;;;;12.52;6.25;;;;;;;8.69;89.12;100899.47;5045515;28;20025;-77
2021/01/07 08:59:38;;;;;;;10.75;6.22;;;;;;;8.02;93.35;100904.00;5032343;28;20481;-77
2021/01/07 09:02:06;;;;;;;12.32;6.32;;;;;;;8.15;93.50;100903.34;5038201;28;20028;-77
2021/01/07 09:04:37;;;;;;;10.07;6.25;;;;;;;8.34;91.85;100890.53;5052805;28;20021;-78
2021/01/07 09:07:12;;;;;;;14.20;8.15;;;;;;;7.92;95.15;100894.69;5033833;28;20025;-77
2021/01/07 09:09:48;;;;;;;14.80;8.57;;;;;;;8.14;96.01;100880.53;5033887;28;20039;-78
2021/01/07 09:12:19;;;;;;;12.85;7.80;;;;;;;8.35;94.89;100897.44;5032132;28;20517;-79
2021/01/07 09:15:13;;;;;;;11.98;7.07;;;;;;;8.31;94.42;100899.66;5033636;28;20389;-78
2021/01/07 09:17:39;;;;;;;14.38;11.10;;;;;;;7.76;98.82;100896.53;5030030;28;20453;-77
2021/01/07 09:20:10;;;;;;;17.45;11.35;;;;;;;7.71;99.06;100890.97;5046234;28;20053;-79
2021/01/07 09:22:36;;;;;;;20.35;12.82;;;;;;;7.63;100.00;100904.28;5026575;28;20024;-79
2021/01/07 09:25:03;;;;;;;21.80;12.75;;;;;;;7.69;99.45;100903.56;5027721;28;20040;-79
2021/01/07 09:27:28;;;;;;;25.08;14.93;;;;;;;7.51;99.79;100906.56;5030472;28;20024;-78
2021/01/07 09:29:54;;;;;;;23.88;14.90;;;;;;;7.41;99.95;100903.34;5035776;28;20017;-78
2021/01/07 09:32:19;;;;;;;21.77;12.98;;;;;;;7.49;100.00;100894.53;5046851;28;20047;-76
2021/01/07 09:34:45;;;;;;;22.15;12.85;;;;;;;7.42;100.00;100890.97;5035723;28;20017;-79
2021/01/07 09:37:12;;;;;;;20.05;11.93;;;;;;;7.62;99.48;100901.81;5033860;28;20459;-78
2021/01/07 09:39:38;;;;;;;20.08;13.20;;;;;;;7.69;99.07;100902.75;5048581;28;20524;-78
2021/01/07 09:42:05;;;;;;;19.88;12.00;;;;;;;7.86;98.15;100916.59;5033875;28;20032;-79
2021/01/07 09:44:31;;;;;;;22.67;12.23;;;;;;;7.89;96.34;100911.75;5050570;28;20090;-78
2021/01/07 09:46:57;;;;;;;22.63;13.43;;;;;;;7.81;96.43;100906.56;5032438;28;20444;-78
2021/01/07 09:49:23;;;;;;;17.52;13.18;;;;;;;7.92;95.31;100914.03;5029180;28;20116;-78
2021/01/07 09:51:49;;;;;;;21.20;11.90;;;;;;;7.74;95.94;100922.31;5020501;28;20351;-79
2021/01/07 09:54:15;;;;;;;18.65;13.77;;;;;;;7.63;95.98;100921.97;5024342;28;20116;-78
2021/01/07 09:56:41;;;;;;;18.42;11.52;;;;;;;7.61;96.33;100929.25;5022599;28;20028;-78
2021/01/07 09:59:06;;;;;;;20.90;13.27;;;;;;;7.84;94.19;100939.75;5041021;28;20020;-78
2021/01/07 10:01:32;;;;;;;17.30;11.45;;;;;;;7.73;93.61;100939.19;5041849;28;20347;-78
2021/01/07 10:03:58;;;;;;;17.60;11.18;;;;;;;7.61;94.01;100924.78;5019850;28;20029;-79
2021/01/07 10:06:24;;;;;;;17.50;12.18;;;;;;;7.62;93.73;100931.72;5026570;28;20029;-79
2021/01/07 10:08:50;;;;;;;17.33;9.88;;;;;;;7.68;92.93;100927.53;5036664;28;20022;-79
2021/01/07 10:11:16;;;;;;;17.55;10.63;;;;;;;7.75;92.82;100933.75;5026704;28;20116;-78
2021/01/07 10:13:42;;;;;;;20.35;11.88;;;;;;;7.65;94.06;100927.88;5019925;28;20111;-79
2021/01/07 10:16:14;;;;;;;23.08;14.38;;;;;;;7.50;94.45;100931.38;5029149;28;20055;-79
2021/01/07 10:18:41;;;;;;;20.60;14.07;;;;;;;7.37;94.25;100925.84;5047933;28;20044;-79
2021/01/07 10:21:09;;;;;;;23.23;15.93;;;;;;;7.58;95.41;100925.16;5026547;28;20025;-79
2021/01/07 10:23:36;;;;;;;24.05;14.48;;;;;;;7.39;94.40;100936.25;5025396;28;20032;-78
2021/01/07 10:26:02;;;;;;;18.50;14.30;;;;;;;7.26;93.74;100932.41;5026053;28;20388;-79
2021/01/07 10:28:28;;;;;;;20.92;14.07;;;;;;;7.18;93.96;100926.38;5036952;28;20033;-78
2021/01/07 10:30:54;;;;;;;26.30;15.25;;;;;;;7.19;94.08;100938.56;5055150;28;20031;-79
2021/01/07 10:33:20;;;;;;;23.00;14.48;;;;;;;7.15;94.76;100937.28;5049130;28;20155;-79
2021/01/07 10:35:46;;;;;;;20.90;13.40;;;;;;;7.13;95.05;100934.00;5033026;28;20036;-78
2021/01/07 10:38:17;;;;;;;18.63;12.52;;;;;;;7.31;94.30;100922.09;5038139;28;20078;-78
2021/01/07 10:40:45;;;;;;;24.35;12.75;;;;;;;7.13;94.57;100918.97;5054066;28;20021;-78
2021/01/07 10:43:14;;;;;;;20.42;12.30;;;;;;;7.04;95.12;100931.41;5055021;28;20025;-78
2021/01/07 10:45:40;;;;;;;21.45;12.80;;;;;;;7.11;93.52;100932.38;5036828;28;20043;-78
2021/01/07 10:48:16;;;;;;;21.15;13.55;;;;;;;7.13;94.08;100940.09;5036951;28;20063;-78
2021/01/07 10:50:42;;;;;;;21.90;12.55;;;;;;;7.46;94.96;100937.97;5036140;28;20024;-77
2021/01/07 10:53:52;;;;;;;20.08;11.40;;;;;;;7.28;94.45;100933.03;5037098;28;20029;-77
2021/01/07 10:56:36;;;;;;;24.00;16.40;;;;;;;7.00;96.43;100937.25;5037111;28;20386;-77
2021/01/07 10:59:31;;;;;;;30.73;16.55;;;;;;;6.98;97.67;100942.69;5053667;28;20102;-77
2021/01/07 11:02:12;;;;;;;26.20;15.90;;;;;;;7.09;97.69;100944.09;5035883;28;20094;-78
2021/01/07 11:05:23;;;;;;;24.55;16.33;;;;;;;6.95;98.54;100940.41;5036998;28;20087;-78
2021/01/07 11:08:16;;;;;;;26.10;15.88;;;;;;;7.05;98.28;100935.72;5051660;28;20490;-77
2021/01/07 11:10:51;;;;;;;23.25;15.75;;;;;;;6.91;98.34;100947.03;5038297;28;20020;-78
2021/01/07 11:13:22;;;;;;;20.27;12.80;;;;;;;7.15;97.56;100943.38;5038151;28;20040;-79
2021/01/07 11:15:53;;;;;;;21.52;12.90;;;;;;;7.11;96.75;100940.28;5038980;28;20017;-77
2021/01/07 11:18:24;;;;;;;18.05;11.90;;;;;;;6.99;96.79;100933.78;5038080;28;20025;-78
2021/01/07 11:20:55;;;;;;;15.00;9.60;;;;;;;7.05;95.63;100935.72;5055697;28;20047;-79
2021/01/07 11:23:22;;;;;;;13.80;9.95;;;;;;;6.96;95.75;100942.06;5038141;28;20088;-77
2021/01/07 11:25:48;;;;;;;15.55;9.75;;;;;;;7.48;93.55;100938.63;5037706;28;20109;-78